Seabourn Sojourn — C6YA5 — position and weather

sailwx.info

Track history (hours):
 
Tides and Currents Weather Stations Pressure Air Temp Water Temp Dewpoint Dewpoint Depression Visibility Wind Speed Wind Dir Waves Ship Positions

Seabourn Sojourn

Last reported at 2017-Nov-19 08:00 UTC. Time now 2017-Nov-19 14:15 UTC.
Position N 21°30' W 108°06'.

Length 198 m; draft 6.7 m.

Type: Ship. MMSI: 311027100.

Wind from 360 at 12 knots

Barometer 1012.0 mb
Air temperature 27.0 ° C
Visibility: greater than 10.8 NM
Dewpoint 26.0 ° C
Water temperature 26.4 ° C

Date/timePositionNaut miles runAvg speedWind from/ knotsBaromVisibWave heightAir tempDewpointWater temp
2017-Nov-19 08:00N 21°30' W 108°06'265 8.8 360 / 121012.010.8 27.026.026.4
2017-Nov-18 02:00N 24°12' W 111°54'36414.6 320 / 101014.010.8 23.222.226.4
2017-Nov-17 01:00N 28°54' W 116°12'20315.1 320 / 101014.010.8 20.418.321.0
2017-Nov-16 11:32N 32°04' W 117°34'114.5
2017-Nov-16 11:30N 32°05' W 117°34'714.2
2017-Nov-16 11:00N 32°11' W 117°37'714.1
2017-Nov-16 10:30N 32°18' W 117°40'714.2
2017-Nov-16 10:01N 32°24' W 117°42'714.2
2017-Nov-16 09:30N 32°31' W 117°45'714.1
2017-Nov-16 09:01N 32°37' W 117°49'713.7
2017-Nov-16 08:30N 32°44' W 117°53'714.2
2017-Nov-16 08:01N 32°50' W 117°54'714.6
2017-Nov-16 07:31N 32°57' W 117°57'714.8
2017-Nov-16 07:01N 33°04' W 118°00'714.9
2017-Nov-16 06:31N 33°11' W 118°03'814.8
2017-Nov-16 06:00N 33°18' W 118°06'715.0
2017-Nov-16 05:30N 33°25' W 118°09'815.2
2017-Nov-16 05:00N 33°33' W 118°12'713.1
2017-Nov-16 04:29N 33°39' W 118°14'5 8.4
2017-Nov-16 03:50N 33°44' W 118°17'1 0.0
2017-Nov-15 14:05N 33°45' W 118°16'0 0.7
2017-Nov-15 14:01N 33°45' W 118°16'1 2.3
2017-Nov-15 13:30N 33°44' W 118°16'3 6.4
2017-Nov-15 13:00N 33°41' W 118°14'510.4
2017-Nov-15 12:30N 33°37' W 118°11'613.1
2017-Nov-15 12:01N 33°31' W 118°08'712.9
2017-Nov-15 11:30N 33°24' W 118°05'712.7
2017-Nov-15 10:58N 33°18' W 118°02'712.8
2017-Nov-15 10:25N 33°11' W 118°05'513.0
2017-Nov-15 10:00N 33°06' W 118°06'612.8
2017-Nov-15 09:30N 33°00' W 118°08'613.0
2017-Nov-15 09:01N 32°54' W 118°10'712.9
2017-Nov-15 08:30N 32°47' W 118°12'612.4
2017-Nov-15 08:00N 32°42' W 118°17'713.3
2017-Nov-15 07:30N 32°38' W 118°23'713.2
2017-Nov-15 07:00N 32°34' W 118°28'713.2
2017-Nov-15 06:30N 32°29' W 118°34'713.5
2017-Nov-15 06:00N 32°25' W 118°40'713.2
2017-Nov-15 05:29N 32°20' W 118°47'613.4
2017-Nov-15 05:00N 32°16' W 118°52'713.3
2017-Nov-15 04:30N 32°12' W 118°58'714.1
2017-Nov-15 04:00N 32°07' W 119°04'714.0
2017-Nov-15 03:30N 32°02' W 119°10'713.1
2017-Nov-15 03:00N 32°02' W 119°18'2913.9
2017-Nov-15 00:57N 31°58' W 119°51'1114.2
2017-Nov-15 00:10N 31°54' W 120°04'214.1
2017-Nov-15 00:00N 31°54' W 120°06'  
2017-Nov-12 02:00N 26°36' W 138°12'13114.5 080 / 111017.010.8 21.217.425.0
2017-Nov-11 17:00N 25°54' W 140°30'22915.2 080 / 151017.0
2017-Nov-11 02:00N 24°42' W 144°30'35216.0 080 / 131017.010.8 22.218.826.0
2017-Nov-10 04:00N 22°54' W 150°36'34617.3 080 / 221016.010.8 24.219.128.0
2017-Nov-09 08:00N 21°06' W 156°30'   090 / 251013.0 25.520.128.0
Track history (hours):
 
Tides and Currents Weather Stations Pressure Air Temp Water Temp Dewpoint Dewpoint Depression Visibility Wind Speed Wind Dir Waves Ship Positions

Seabourn Sojourn

Last reported at 2017-Nov-19 08:00 UTC. Time now 2017-Nov-19 14:15 UTC.
Position N 21°30' W 108°06'.

Length 198 m; draft 6.7 m.

Type: Ship. MMSI: 311027100.

Wind from 360 at 12 knots

Barometer 1012.0 mb
Air temperature 27.0 ° C
Visibility: greater than 10.8 NM
Dewpoint 26.0 ° C
Water temperature 26.4 ° C

Date/timePositionNaut miles runAvg speedWind from/ knotsBaromVisibWave heightAir tempDewpointWater temp
2017-Nov-19 08:00N 21°30' W 108°06'265 8.8 360 / 121012.010.8 27.026.026.4
2017-Nov-18 02:00N 24°12' W 111°54'36414.6 320 / 101014.010.8 23.222.226.4
2017-Nov-17 01:00N 28°54' W 116°12'20315.1 320 / 101014.010.8 20.418.321.0
2017-Nov-16 11:32N 32°04' W 117°34'114.5
2017-Nov-16 11:30N 32°05' W 117°34'714.2
2017-Nov-16 11:00N 32°11' W 117°37'714.1
2017-Nov-16 10:30N 32°18' W 117°40'714.2
2017-Nov-16 10:01N 32°24' W 117°42'714.2
2017-Nov-16 09:30N 32°31' W 117°45'714.1
2017-Nov-16 09:01N 32°37' W 117°49'713.7
2017-Nov-16 08:30N 32°44' W 117°53'714.2
2017-Nov-16 08:01N 32°50' W 117°54'714.6
2017-Nov-16 07:31N 32°57' W 117°57'714.8
2017-Nov-16 07:01N 33°04' W 118°00'714.9
2017-Nov-16 06:31N 33°11' W 118°03'814.8
2017-Nov-16 06:00N 33°18' W 118°06'715.0
2017-Nov-16 05:30N 33°25' W 118°09'815.2
2017-Nov-16 05:00N 33°33' W 118°12'713.1
2017-Nov-16 04:29N 33°39' W 118°14'5 8.4
2017-Nov-16 03:50N 33°44' W 118°17'1 0.0
2017-Nov-15 14:05N 33°45' W 118°16'0 0.7
2017-Nov-15 14:01N 33°45' W 118°16'1 2.3
2017-Nov-15 13:30N 33°44' W 118°16'3 6.4
2017-Nov-15 13:00N 33°41' W 118°14'510.4
2017-Nov-15 12:30N 33°37' W 118°11'613.1
2017-Nov-15 12:01N 33°31' W 118°08'712.9
2017-Nov-15 11:30N 33°24' W 118°05'712.7
2017-Nov-15 10:58N 33°18' W 118°02'712.8
2017-Nov-15 10:25N 33°11' W 118°05'513.0
2017-Nov-15 10:00N 33°06' W 118°06'612.8
2017-Nov-15 09:30N 33°00' W 118°08'613.0
2017-Nov-15 09:01N 32°54' W 118°10'712.9
2017-Nov-15 08:30N 32°47' W 118°12'612.4
2017-Nov-15 08:00N 32°42' W 118°17'713.3
2017-Nov-15 07:30N 32°38' W 118°23'713.2
2017-Nov-15 07:00N 32°34' W 118°28'713.2
2017-Nov-15 06:30N 32°29' W 118°34'713.5
2017-Nov-15 06:00N 32°25' W 118°40'713.2
2017-Nov-15 05:29N 32°20' W 118°47'613.4
2017-Nov-15 05:00N 32°16' W 118°52'713.3
2017-Nov-15 04:30N 32°12' W 118°58'714.1
2017-Nov-15 04:00N 32°07' W 119°04'714.0
2017-Nov-15 03:30N 32°02' W 119°10'713.1
2017-Nov-15 03:00N 32°02' W 119°18'2913.9
2017-Nov-15 00:57N 31°58' W 119°51'1114.2
2017-Nov-15 00:10N 31°54' W 120°04'214.1
2017-Nov-15 00:00N 31°54' W 120°06'  
2017-Nov-12 02:00N 26°36' W 138°12'13114.5 080 / 111017.010.8 21.217.425.0
2017-Nov-11 17:00N 25°54' W 140°30'22915.2 080 / 151017.0
2017-Nov-11 02:00N 24°42' W 144°30'35216.0 080 / 131017.010.8 22.218.826.0
2017-Nov-10 04:00N 22°54' W 150°36'34617.3 080 / 221016.010.8 24.219.128.0
2017-Nov-09 08:00N 21°06' W 156°30'   090 / 251013.0 25.520.128.0

Dump ship's entire track history